createdAt,value
2023-10-10T00:02:56.423Z,20.25
2023-10-10T00:06:58.332Z,17.63
2023-10-10T00:11:00.255Z,22.08
2023-10-10T00:15:04.564Z,18.80
2023-10-10T00:19:30.999Z,19.98
2023-10-10T00:23:40.975Z,25.02
2023-10-10T00:27:44.936Z,24.10
2023-10-10T00:31:56.482Z,23.45
2023-10-10T00:36:00.637Z,30.00
2023-10-10T00:40:10.052Z,21.50
2023-10-10T00:44:19.390Z,24.92
2023-10-10T00:48:23.826Z,29.85
2023-10-10T00:52:25.904Z,29.58
2023-10-10T00:56:30.967Z,29.30
2023-10-10T01:00:33.748Z,34.25
2023-10-10T01:04:55.916Z,37.47
2023-10-10T01:09:17.317Z,36.90
2023-10-10T01:13:19.317Z,34.15
2023-10-10T01:17:24.150Z,38.70
2023-10-10T01:21:34.576Z,34.10
2023-10-10T01:25:36.542Z,37.63
2023-10-10T01:29:51.843Z,35.20
2023-10-10T01:33:54.135Z,32.55
2023-10-10T01:37:56.594Z,36.22
2023-10-10T01:42:00.048Z,36.53
2023-10-10T01:46:17.676Z,30.25
2023-10-10T01:50:19.718Z,34.27
2023-10-10T01:54:30.503Z,35.85
2023-10-10T01:58:32.284Z,27.40
2023-10-10T02:02:36.520Z,33.60
2023-10-10T02:06:41.390Z,32.40
2023-10-10T02:10:47.634Z,36.55
2023-10-10T02:14:49.909Z,36.42
2023-10-10T02:18:56.254Z,35.05
2023-10-10T02:23:09.782Z,34.05
2023-10-10T02:27:15.248Z,38.88
2023-10-10T02:31:18.040Z,40.17
2023-10-10T02:35:29.084Z,30.88
2023-10-10T02:39:32.718Z,33.05
2023-10-10T02:43:35.104Z,32.78
2023-10-10T02:47:38.344Z,32.05
2023-10-10T02:51:44.896Z,29.45
2023-10-10T02:55:53.386Z,28.75
2023-10-10T03:00:29.330Z,33.53
2023-10-10T03:04:49.874Z,30.13
2023-10-10T03:09:07.972Z,37.55
2023-10-10T03:13:29.626Z,37.85
2023-10-10T03:17:44.975Z,39.03
2023-10-10T03:21:48.636Z,37.00
2023-10-10T03:26:06.179Z,36.38
2023-10-10T03:34:46.581Z,34.75
2023-10-10T03:38:50.590Z,34.38
2023-10-10T03:43:11.125Z,37.53
2023-10-10T03:47:31.685Z,34.85
2023-10-10T03:51:52.386Z,35.63
2023-10-10T03:56:12.845Z,38.97
2023-10-10T04:00:34.328Z,38.55
2023-10-10T04:04:54.931Z,45.10
2023-10-10T04:09:15.590Z,39.75
2023-10-10T04:13:35.782Z,44.80
2023-10-10T04:17:56.355Z,42.60
2023-10-10T04:22:16.627Z,44.88
2023-10-10T04:26:37.030Z,42.70
2023-10-10T04:30:57.431Z,41.35
2023-10-10T04:35:18.127Z,42.42
2023-10-10T04:39:38.506Z,46.78
2023-10-10T04:43:59.015Z,42.97
2023-10-10T04:48:19.610Z,45.42
2023-10-10T04:52:39.906Z,41.45
2023-10-10T04:57:00.376Z,40.08
2023-10-10T05:01:27.722Z,43.90
2023-10-10T05:05:48.014Z,42.80
2023-10-10T05:10:08.370Z,39.28
2023-10-10T05:14:28.931Z,36.67
2023-10-10T05:18:53.078Z,42.75
2023-10-10T05:23:13.602Z,43.42
2023-10-10T05:27:15.490Z,39.42
2023-10-10T05:31:23.058Z,36.20
2023-10-10T05:35:25.055Z,43.50
2023-10-10T05:39:27.991Z,38.58
2023-10-10T05:43:35.336Z,49.13
2023-10-10T05:47:37.257Z,41.20
2023-10-10T05:51:39.286Z,46.78
2023-10-10T05:55:42.227Z,36.65
2023-10-10T05:59:44.229Z,33.40
2023-10-10T06:03:47.181Z,40.88
2023-10-10T06:07:50.986Z,37.15
2023-10-10T06:11:52.839Z,37.75
2023-10-10T06:15:54.841Z,36.45
2023-10-10T06:19:58.259Z,44.10
2023-10-10T06:24:00.188Z,37.60
2023-10-10T06:28:02.055Z,37.45
2023-10-10T06:32:04.952Z,41.65
2023-10-10T06:36:24.245Z,42.50
2023-10-10T06:40:26.821Z,34.95
2023-10-10T06:44:41.443Z,36.10
2023-10-10T06:48:43.557Z,49.42
2023-10-10T06:52:45.519Z,42.72
2023-10-10T06:57:03.092Z,39.22
2023-10-10T07:01:06.277Z,40.13
2023-10-10T07:05:16.889Z,43.33
2023-10-10T07:09:29.066Z,40.15
2023-10-10T07:13:31.209Z,38.53
2023-10-10T07:17:34.059Z,44.75
2023-10-10T07:21:38.176Z,40.65
2023-10-10T07:25:45.339Z,44.35
2023-10-10T07:29:47.201Z,42.78
2023-10-10T07:34:17.129Z,45.38
2023-10-10T07:38:19.369Z,43.90
2023-10-10T07:42:28.577Z,52.58
2023-10-10T07:46:37.337Z,47.42
2023-10-10T07:50:49.083Z,50.20
2023-10-10T07:54:55.240Z,48.92
2023-10-10T07:58:58.486Z,45.50
2023-10-10T08:03:00.518Z,45.42
2023-10-10T08:07:04.906Z,43.58
2023-10-10T08:11:13.848Z,50.03
2023-10-10T08:15:22.016Z,44.65
2023-10-10T08:23:37.772Z,50.35
2023-10-10T08:27:47.019Z,44.33
2023-10-10T08:31:48.929Z,48.90
2023-10-10T08:35:51.696Z,51.20
2023-10-10T08:39:53.704Z,48.00
2023-10-10T08:43:59.549Z,50.22
2023-10-10T08:48:04.332Z,55.63
2023-10-10T08:52:07.919Z,51.58
2023-10-10T08:56:09.825Z,49.42
2023-10-10T09:00:13.271Z,45.65
2023-10-10T09:04:20.972Z,54.53
2023-10-10T09:08:29.317Z,45.60
2023-10-10T09:16:43.129Z,45.03
2023-10-10T09:20:48.784Z,42.00
2023-10-10T09:24:50.975Z,45.17
2023-10-10T09:29:04.717Z,43.75
2023-10-10T09:33:29.249Z,42.20
2023-10-10T09:37:36.863Z,44.47
2023-10-10T09:41:59.275Z,45.30
2023-10-10T09:46:20.670Z,42.97
2023-10-10T09:50:25.438Z,46.75
2023-10-10T09:54:29.451Z,40.65
2023-10-10T09:58:43.213Z,46.08
2023-10-10T10:02:51.711Z,39.58
2023-10-10T10:07:14.261Z,34.35
2023-10-10T10:11:27.501Z,42.55
2023-10-10T10:15:52.381Z,38.70
2023-10-10T10:20:19.949Z,36.92
2023-10-10T10:24:32.230Z,35.50
2023-10-10T10:28:37.096Z,37.78
2023-10-10T10:32:43.461Z,34.67
2023-10-10T10:36:52.867Z,33.05
2023-10-10T10:41:17.100Z,27.98
2023-10-10T10:45:28.129Z,36.63
2023-10-10T10:49:39.547Z,32.75
2023-10-10T10:53:42.925Z,32.13
2023-10-10T10:57:50.683Z,31.33
2023-10-10T11:01:59.138Z,35.50
2023-10-10T11:06:02.308Z,33.72
2023-10-10T11:10:10.341Z,30.70
2023-10-10T11:14:21.045Z,31.83
2023-10-10T11:18:36.529Z,31.85
2023-10-10T11:22:41.824Z,29.85
2023-10-10T11:26:46.127Z,26.90
2023-10-10T11:30:48.106Z,23.40
2023-10-10T11:34:51.251Z,30.80
2023-10-10T11:38:57.561Z,24.65
2023-10-10T11:43:12.744Z,25.45
2023-10-10T11:47:26.242Z,24.77
2023-10-10T11:51:37.920Z,31.13
2023-10-10T11:55:43.108Z,26.33
2023-10-10T11:59:48.412Z,29.98
2023-10-10T12:03:50.649Z,28.50
2023-10-10T12:07:54.733Z,31.20
2023-10-10T12:12:05.862Z,22.73
2023-10-10T12:16:14.283Z,26.85
2023-10-10T12:20:17.809Z,25.35
2023-10-10T12:24:19.760Z,24.45
2023-10-10T12:28:22.286Z,24.98
2023-10-10T12:32:24.230Z,22.13
2023-10-10T12:36:34.095Z,28.05
2023-10-10T12:40:36.492Z,20.13
2023-10-10T12:44:38.501Z,24.95
2023-10-10T12:48:43.172Z,21.13
2023-10-10T12:52:48.021Z,18.65
2023-10-10T12:57:00.626Z,20.23
2023-10-10T13:01:02.668Z,17.77
2023-10-10T13:05:08.979Z,28.35
2023-10-10T13:09:16.233Z,20.48
2023-10-10T13:13:27.995Z,19.75
2023-10-10T13:17:29.986Z,18.10
2023-10-10T13:21:31.955Z,19.70
2023-10-10T13:25:40.934Z,19.38
2023-10-10T13:29:43.761Z,16.35
2023-10-10T13:33:46.684Z,14.35
2023-10-10T13:37:48.538Z,12.63
2023-10-10T13:41:50.363Z,11.77
2023-10-10T13:45:52.691Z,11.02
2023-10-10T13:50:14.554Z,15.32
2023-10-10T13:54:17.462Z,11.52
2023-10-10T13:58:19.397Z,9.52
2023-10-10T14:02:26.532Z,13.75
2023-10-10T14:06:35.313Z,10.57
2023-10-10T14:10:39.869Z,12.43
2023-10-10T14:14:46.173Z,10.27
2023-10-10T14:18:51.679Z,13.23
2023-10-10T14:22:56.352Z,11.52
2023-10-10T14:27:00.750Z,15.02
2023-10-10T14:31:05.094Z,14.60
2023-10-10T14:35:09.489Z,6.45
2023-10-10T14:39:29.433Z,14.02
2023-10-10T14:43:34.410Z,7.03
2023-10-10T14:47:40.671Z,13.75
2023-10-10T14:51:43.003Z,7.18
2023-10-10T14:55:45.823Z,10.18
2023-10-10T14:59:47.833Z,7.15
2023-10-10T15:03:50.046Z,8.65
2023-10-10T15:07:53.900Z,7.50
2023-10-10T15:12:00.879Z,10.13
2023-10-10T15:16:03.125Z,12.88
2023-10-10T15:20:13.448Z,12.60
2023-10-10T15:24:16.466Z,12.80
2023-10-10T15:28:19.721Z,12.30
2023-10-10T15:32:21.692Z,10.73
2023-10-10T15:36:23.598Z,12.80
2023-10-10T15:40:25.399Z,14.13
2023-10-10T15:44:28.632Z,15.25
2023-10-10T15:48:30.636Z,13.48
2023-10-10T15:52:35.112Z,13.98
2023-10-10T15:56:38.358Z,14.07
2023-10-10T16:00:40.858Z,20.13
2023-10-10T16:04:44.290Z,17.35
2023-10-10T16:08:48.708Z,18.13
2023-10-10T16:12:50.628Z,14.98
2023-10-10T16:16:52.857Z,19.90
2023-10-10T16:20:54.804Z,15.68
2023-10-10T16:24:56.761Z,15.10
2023-10-10T16:28:58.585Z,18.60
2023-10-10T16:33:00.558Z,16.75
2023-10-10T16:37:02.561Z,21.33
2023-10-10T16:41:08.047Z,29.50
2023-10-10T16:45:11.943Z,17.83
2023-10-10T16:49:16.355Z,17.60
2023-10-10T16:53:18.373Z,17.02
2023-10-10T16:57:27.219Z,18.35
2023-10-10T17:01:29.685Z,14.75
2023-10-10T17:05:37.665Z,9.57
2023-10-10T17:09:41.425Z,11.15
2023-10-10T17:13:43.726Z,12.68
2023-10-10T17:17:49.610Z,12.40
2023-10-10T17:21:51.584Z,12.82
2023-10-10T17:25:53.444Z,12.80
2023-10-10T17:29:58.476Z,9.90
2023-10-10T17:34:02.834Z,11.15
2023-10-10T17:38:04.912Z,8.30
2023-10-10T17:42:08.015Z,12.50
2023-10-10T17:46:16.904Z,8.98
2023-10-10T17:50:18.774Z,9.98
2023-10-10T17:54:20.780Z,7.60
2023-10-10T17:58:22.600Z,9.88
2023-10-10T18:02:24.549Z,12.32
2023-10-10T18:06:27.880Z,6.68
2023-10-10T18:10:29.711Z,9.10
2023-10-10T18:14:32.060Z,13.02
2023-10-10T18:18:36.583Z,9.65
2023-10-10T18:22:40.419Z,12.93
2023-10-10T18:26:42.362Z,11.25
2023-10-10T18:30:44.273Z,7.85
2023-10-10T18:34:46.413Z,8.02
2023-10-10T18:38:49.608Z,8.75
2023-10-10T18:42:52.059Z,7.22
2023-10-10T18:46:53.896Z,7.00
2023-10-10T18:50:56.034Z,15.48
2023-10-10T18:54:57.925Z,5.97
2023-10-10T18:59:02.322Z,6.35
2023-10-10T19:03:08.593Z,10.90
2023-10-10T19:07:11.509Z,9.77
2023-10-10T19:11:14.937Z,9.43
2023-10-10T19:15:17.306Z,11.27
2023-10-10T19:19:21.288Z,10.00
2023-10-10T19:23:23.756Z,8.55
2023-10-10T19:27:26.942Z,10.48
2023-10-10T19:31:28.923Z,6.50
2023-10-10T19:35:30.775Z,9.90
2023-10-10T19:39:34.232Z,6.13
2023-10-10T19:43:37.934Z,8.10
2023-10-10T19:47:41.270Z,7.97
2023-10-10T19:51:45.731Z,8.30
2023-10-10T19:55:50.889Z,8.95
2023-10-10T19:59:52.810Z,10.07
2023-10-10T20:03:57.214Z,8.20
2023-10-10T20:07:59.801Z,8.43
2023-10-10T20:12:04.119Z,12.32
2023-10-10T20:16:16.613Z,9.35
2023-10-10T20:20:21.161Z,13.10
2023-10-10T20:24:25.298Z,15.57
2023-10-10T20:28:27.573Z,17.58
2023-10-10T20:32:29.753Z,11.40
2023-10-10T20:36:31.764Z,20.50
2023-10-10T20:40:35.020Z,18.38
2023-10-10T20:44:37.311Z,24.35
2023-10-10T20:48:39.250Z,14.85
2023-10-10T20:52:42.494Z,14.40
2023-10-10T20:56:44.761Z,17.27
2023-10-10T21:00:46.714Z,14.80
2023-10-10T21:04:48.708Z,24.25
2023-10-10T21:08:50.769Z,19.00
2023-10-10T21:12:53.196Z,15.57
2023-10-10T21:16:55.645Z,22.63
2023-10-10T21:21:04.177Z,22.48
2023-10-10T21:25:07.365Z,22.33
2023-10-10T21:29:09.219Z,22.38
2023-10-10T21:33:11.141Z,33.08
2023-10-10T21:37:14.624Z,21.30
2023-10-10T21:41:16.615Z,24.73
2023-10-10T21:45:20.970Z,26.35
2023-10-10T21:49:22.989Z,21.52
2023-10-10T21:53:24.846Z,23.75
2023-10-10T21:57:26.690Z,24.02
2023-10-10T22:01:28.607Z,25.55
2023-10-10T22:05:31.921Z,22.55
2023-10-10T22:09:33.976Z,29.67
2023-10-10T22:13:38.833Z,25.83
2023-10-10T22:17:40.890Z,29.02
2023-10-10T22:21:43.041Z,23.98
2023-10-10T22:25:44.865Z,25.40
2023-10-10T22:29:46.747Z,27.50
2023-10-10T22:33:48.718Z,30.05
2023-10-10T22:37:52.664Z,26.02
2023-10-10T22:41:54.525Z,25.27
2023-10-10T22:45:56.377Z,21.20
2023-10-10T22:49:58.898Z,25.85
2023-10-10T22:54:02.782Z,17.45
2023-10-10T22:58:09.164Z,20.15
2023-10-10T23:02:12.576Z,34.45
2023-10-10T23:06:14.487Z,28.08
2023-10-10T23:10:21.732Z,19.60
2023-10-10T23:14:23.630Z,28.85
2023-10-10T23:18:25.635Z,29.08
2023-10-10T23:22:27.606Z,20.80
2023-10-10T23:26:29.414Z,23.27
2023-10-10T23:30:34.525Z,27.25
2023-10-10T23:34:36.454Z,26.15
2023-10-10T23:38:41.776Z,33.42
2023-10-10T23:42:52.594Z,22.50
2023-10-10T23:46:56.364Z,20.75
2023-10-10T23:50:58.796Z,24.67
2023-10-10T23:55:02.234Z,19.95
2023-10-10T23:59:04.278Z,30.35
